Time;durP1;ratioP1;P1;durP2;ratioP2;P2;SDS_P1;SDS_P2;PMS_P1;PMS_P2;Temp;Humidity;BMP_temperature;BMP_pressure;BME280_temperature;BME280_humidity;BME280_pressure;Samples;Min_cycle;Max_cycle;Signal;HPM_P1;HPM_P2
2023/08/01 00:00:31;;;;;;;14.48;7.07;;;16.80;99.90;;;;;;4995856;28;20041;-84
2023/08/01 00:02:57;;;;;;;12.85;6.30;;;16.80;99.90;;;;;;5013208;28;20034;-83
2023/08/01 00:05:23;;;;;;;11.52;6.38;;;16.80;99.90;;;;;;5011966;28;20430;-84
2023/08/01 00:07:48;;;;;;;14.23;7.63;;;16.80;99.90;;;;;;5012543;28;20061;-82
2023/08/01 00:10:16;;;;;;;11.90;6.97;;;16.80;99.90;;;;;;5012927;28;20036;-83
2023/08/01 00:12:42;;;;;;;16.35;7.78;;;16.80;99.90;;;;;;5011925;28;20441;-83
2023/08/01 00:15:08;;;;;;;14.43;7.25;;;16.80;99.90;;;;;;5013119;28;20386;-83
2023/08/01 00:17:34;;;;;;;12.80;7.25;;;16.80;99.90;;;;;;5011896;28;20490;-84
2023/08/01 00:20:04;;;;;;;12.73;6.97;;;16.80;99.90;;;;;;5012033;28;20025;-83
2023/08/01 00:22:29;;;;;;;13.20;6.68;;;16.80;99.90;;;;;;5028273;28;20018;-83
2023/08/01 01:04:39;;;;;;;8.82;4.57;;;16.30;99.90;;;;;;5010729;28;20413;-83
2023/08/01 01:07:07;;;;;;;10.90;5.18;;;16.30;99.90;;;;;;5014330;28;20054;-83
2023/08/01 01:09:32;;;;;;;7.07;3.90;;;16.30;99.90;;;;;;4997662;28;20116;-83
2023/08/01 01:11:59;;;;;;;12.68;5.00;;;16.30;99.90;;;;;;4966285;28;20116;-82
2023/08/01 01:14:26;;;;;;;7.15;4.07;;;16.30;99.90;;;;;;5015507;28;20046;-81
2023/08/01 01:16:52;;;;;;;11.98;4.93;;;16.30;99.90;;;;;;4981675;28;20045;-82
2023/08/01 01:19:17;;;;;;;8.43;5.05;;;16.30;99.90;;;;;;4997655;28;20110;-81
2023/08/01 01:21:44;;;;;;;10.85;5.30;;;16.30;99.90;;;;;;4998149;28;20117;-81
2023/08/01 01:24:12;;;;;;;9.20;4.90;;;16.30;99.90;;;;;;5015196;28;20100;-81
2023/08/01 01:26:41;;;;;;;11.73;6.13;;;16.30;99.90;;;;;;4997939;28;20032;-81
2023/08/01 01:29:08;;;;;;;9.25;5.70;;;16.30;99.90;;;;;;5015268;28;20474;-82
2023/08/01 01:31:35;;;;;;;12.63;6.53;;;16.30;99.90;;;;;;5015448;28;20026;-82
2023/08/01 01:34:02;;;;;;;13.73;6.65;;;16.30;99.90;;;;;;5015172;28;20501;-84
2023/08/01 01:36:29;;;;;;;13.25;7.00;;;16.30;99.90;;;;;;4997109;28;20068;-86
2023/08/01 01:38:54;;;;;;;11.35;6.25;;;16.30;99.90;;;;;;4998024;28;20038;-86
2023/08/01 01:41:20;;;;;;;13.32;7.00;;;16.30;99.90;;;;;;4981053;28;20030;-87
2023/08/01 01:43:46;;;;;;;16.50;7.95;;;16.30;99.90;;;;;;4997787;28;20034;-85
2023/08/01 01:46:11;;;;;;;15.38;7.05;;;16.30;99.90;;;;;;4997552;28;20036;-86
2023/08/01 01:48:37;;;;;;;13.55;6.95;;;16.30;99.90;;;;;;4997551;28;20029;-82
2023/08/01 01:51:02;;;;;;;11.23;6.28;;;16.30;99.90;;;;;;4997565;28;20033;-83
2023/08/01 01:53:28;;;;;;;12.82;6.85;;;16.30;99.90;;;;;;4981464;28;20038;-84
2023/08/01 01:55:54;;;;;;;14.30;7.07;;;16.30;99.90;;;;;;4997143;28;20042;-83
2023/08/01 01:58:19;;;;;;;14.38;5.60;;;16.30;99.90;;;;;;4997148;28;20156;-83
2023/08/01 02:00:45;;;;;;;14.38;5.22;;;16.20;99.90;;;;;;5015460;28;20084;-82
2023/08/01 02:03:12;;;;;;;12.88;7.15;;;16.20;99.90;;;;;;5001339;28;20089;-83
2023/08/01 02:05:40;;;;;;;16.40;7.15;;;16.10;99.90;;;;;;5004452;28;20061;-82
2023/08/01 02:08:06;;;;;;;14.98;6.65;;;16.10;99.90;;;;;;5000611;28;20030;-83
2023/08/01 02:10:32;;;;;;;21.42;7.07;;;16.10;99.90;;;;;;4983709;28;20456;-83
2023/08/01 02:12:57;;;;;;;16.20;8.55;;;16.00;99.90;;;;;;5004592;28;20474;-82
2023/08/01 02:15:23;;;;;;;14.25;7.63;;;16.00;99.90;;;;;;4991440;28;20156;-85
2023/08/01 02:17:49;;;;;;;11.70;6.05;;;16.00;99.90;;;;;;5011867;28;20377;-84
2023/08/01 02:20:14;;;;;;;12.45;6.95;;;15.90;99.90;;;;;;5002797;28;20038;-83
2023/08/01 02:22:40;;;;;;;14.52;7.10;;;15.90;99.90;;;;;;5024857;28;20045;-83
2023/08/01 02:25:06;;;;;;;14.55;7.10;;;15.80;99.90;;;;;;5007750;28;20470;-84
2023/08/01 02:27:31;;;;;;;15.13;8.48;;;15.90;99.90;;;;;;4993503;28;20061;-83
2023/08/01 02:29:57;;;;;;;13.98;7.03;;;15.80;99.90;;;;;;5026601;28;20026;-84
2023/08/01 02:32:22;;;;;;;14.38;7.22;;;15.80;99.90;;;;;;5026660;28;20033;-83
2023/08/01 02:34:48;;;;;;;15.13;6.80;;;15.80;99.90;;;;;;5026408;28;20044;-85
2023/08/01 02:37:14;;;;;;;17.33;7.50;;;15.80;99.90;;;;;;5016012;28;20034;-83
2023/08/01 02:39:39;;;;;;;14.88;7.25;;;15.80;99.90;;;;;;5022395;28;20038;-84
2023/08/01 02:42:05;;;;;;;13.20;7.18;;;15.80;99.90;;;;;;5010834;28;20025;-83
2023/08/01 02:44:31;;;;;;;17.73;7.63;;;15.70;99.90;;;;;;5026318;28;20026;-83
2023/08/01 02:46:56;;;;;;;14.15;7.55;;;15.70;99.90;;;;;;5024907;28;20037;-85
2023/08/01 02:49:22;;;;;;;13.55;7.15;;;15.70;99.90;;;;;;5024733;28;20462;-85
2023/08/01 02:51:48;;;;;;;18.38;6.75;;;15.70;99.90;;;;;;5040841;28;20029;-85
2023/08/01 02:54:13;;;;;;;13.02;7.57;;;15.70;99.90;;;;;;5020317;28;20045;-85
2023/08/01 02:56:41;;;;;;;17.00;8.50;;;15.70;99.90;;;;;;5022816;28;20037;-84
2023/08/01 02:59:09;;;;;;;18.27;8.73;;;15.70;99.90;;;;;;5037985;28;20429;-84
2023/08/01 03:01:36;;;;;;;17.00;8.95;;;15.70;99.90;;;;;;5036049;28;20026;-85
2023/08/01 03:04:06;;;;;;;13.80;8.23;;;15.60;99.90;;;;;;5018162;28;20037;-83
2023/08/01 03:06:32;;;;;;;20.60;10.38;;;15.60;99.90;;;;;;5034876;28;20075;-84
2023/08/01 03:08:59;;;;;;;17.65;8.35;;;15.60;99.90;;;;;;5016922;28;20053;-83
2023/08/01 03:11:25;;;;;;;18.20;9.30;;;15.60;99.90;;;;;;5034244;28;20037;-84
2023/08/01 03:13:51;;;;;;;14.70;7.70;;;15.60;99.90;;;;;;5000236;28;20481;-85
2023/08/01 03:16:17;;;;;;;19.27;9.20;;;15.60;99.90;;;;;;5017322;28;20037;-83
2023/08/01 03:18:43;;;;;;;17.27;8.13;;;15.60;99.90;;;;;;5000496;28;20025;-83
2023/08/01 03:21:09;;;;;;;16.05;7.22;;;15.70;99.90;;;;;;5035027;28;20034;-83
2023/08/01 03:23:34;;;;;;;18.73;7.60;;;15.70;99.90;;;;;;5034217;28;20060;-83
2023/08/01 03:26:00;;;;;;;22.02;8.05;;;15.70;99.90;;;;;;5016354;28;20055;-84
2023/08/01 03:28:26;;;;;;;16.30;7.28;;;15.70;99.90;;;;;;5033440;28;20133;-84
2023/08/01 03:30:53;;;;;;;20.67;8.02;;;15.70;99.90;;;;;;5016686;28;20079;-85
2023/08/01 03:33:19;;;;;;;19.65;7.85;;;15.80;99.90;;;;;;5033751;28;20021;-85
2023/08/01 03:35:45;;;;;;;19.08;7.65;;;15.80;99.90;;;;;;5016596;28;20069;-84
2023/08/01 03:38:10;;;;;;;19.23;7.07;;;15.80;99.90;;;;;;5036656;28;20470;-84
2023/08/01 03:40:36;;;;;;;25.05;8.73;;;15.80;99.90;;;;;;5021103;28;20049;-83
2023/08/01 03:43:02;;;;;;;20.00;8.23;;;15.80;99.90;;;;;;5019631;28;20030;-83
2023/08/01 03:45:27;;;;;;;22.48;8.45;;;15.80;99.90;;;;;;5001165;28;20039;-83
2023/08/01 03:47:53;;;;;;;23.60;8.15;;;15.80;99.90;;;;;;5036393;28;20041;-84
2023/08/01 03:50:19;;;;;;;20.38;7.05;;;15.80;99.90;;;;;;5039474;28;20084;-83
2023/08/01 03:52:45;;;;;;;16.73;7.20;;;15.80;99.90;;;;;;5023659;28;20474;-82
2023/08/01 03:55:11;;;;;;;18.80;8.38;;;15.80;99.90;;;;;;5003180;28;20042;-84
2023/08/01 03:57:38;;;;;;;17.67;7.72;;;15.90;99.90;;;;;;5034751;28;20052;-84
2023/08/01 04:00:13;;;;;;;20.70;8.00;;;15.80;99.90;;;;;;5037429;28;20061;-84
2023/08/01 04:02:40;;;;;;;19.27;7.50;;;15.80;99.90;;;;;;5020855;28;20034;-82
2023/08/01 04:05:06;;;;;;;22.90;7.10;;;15.80;99.90;;;;;;5002652;28;20041;-83
2023/08/01 04:07:31;;;;;;;21.08;6.90;;;15.90;99.90;;;;;;5019281;28;20034;-84
2023/08/01 04:09:57;;;;;;;15.18;7.20;;;15.90;99.90;;;;;;5002835;28;20086;-83
2023/08/01 04:12:23;;;;;;;13.55;6.38;;;15.90;99.90;;;;;;5002748;28;20461;-83
2023/08/01 04:14:48;;;;;;;21.48;7.30;;;15.90;99.90;;;;;;5002165;28;20409;-84
2023/08/01 04:17:14;;;;;;;15.77;6.93;;;15.90;99.90;;;;;;5036713;28;20033;-83
2023/08/01 04:19:40;;;;;;;16.38;6.78;;;15.90;99.90;;;;;;5036276;28;20034;-84
2023/08/01 04:22:05;;;;;;;16.30;6.95;;;15.90;99.90;;;;;;5003289;28;20034;-84
2023/08/01 04:24:31;;;;;;;21.92;7.80;;;15.90;99.90;;;;;;5002260;28;20022;-84
2023/08/01 04:26:56;;;;;;;13.52;6.78;;;15.90;99.90;;;;;;5018839;28;20034;-82
2023/08/01 04:29:23;;;;;;;17.83;8.27;;;15.90;99.90;;;;;;5018328;28;20061;-82
2023/08/01 04:31:48;;;;;;;17.25;6.03;;;16.00;99.90;;;;;;5002350;28;20091;-83
2023/08/01 04:34:14;;;;;;;17.25;6.97;;;16.00;99.90;;;;;;5036061;28;20041;-84
2023/08/01 04:36:39;;;;;;;21.65;7.97;;;16.00;99.90;;;;;;5002242;28;20037;-81
2023/08/01 04:39:05;;;;;;;18.73;6.97;;;16.00;99.90;;;;;;5017784;28;20429;-83
2023/08/01 04:41:31;;;;;;;12.90;5.47;;;16.00;99.90;;;;;;5001816;28;20033;-84
2023/08/01 04:43:57;;;;;;;15.80;6.85;;;16.00;99.90;;;;;;5035743;28;20060;-82
2023/08/01 04:46:22;;;;;;;16.48;5.78;;;16.00;99.90;;;;;;5001846;28;20033;-84
2023/08/01 04:48:48;;;;;;;19.88;6.50;;;16.00;99.90;;;;;;5035863;28;20040;-82
2023/08/01 04:51:13;;;;;;;12.82;6.07;;;16.00;99.90;;;;;;5035942;28;20052;-83
2023/08/01 04:53:39;;;;;;;16.92;6.53;;;15.90;99.90;;;;;;5001246;28;20037;-84
2023/08/01 04:56:05;;;;;;;15.15;5.50;;;16.00;99.90;;;;;;5036036;28;20037;-83
2023/08/01 04:58:31;;;;;;;14.52;6.60;;;16.00;99.90;;;;;;5018258;28;20025;-83
2023/08/01 05:00:56;;;;;;;12.68;6.30;;;16.00;99.90;;;;;;5035859;28;20109;-83
2023/08/01 05:03:22;;;;;;;16.27;6.13;;;16.00;99.90;;;;;;5036321;28;20097;-84
2023/08/01 05:05:47;;;;;;;15.15;5.78;;;16.00;99.90;;;;;;5010694;28;20421;-84
2023/08/01 05:08:13;;;;;;;18.02;5.95;;;16.00;99.90;;;;;;4994386;28;20030;-83
2023/08/01 05:10:39;;;;;;;10.18;5.22;;;16.10;99.90;;;;;;4977823;28;20034;-84
2023/08/01 05:13:05;;;;;;;10.45;4.60;;;16.10;99.90;;;;;;4994988;28;20026;-84
2023/08/01 05:15:30;;;;;;;16.80;5.32;;;16.10;99.90;;;;;;4978633;28;20031;-84
2023/08/01 05:17:56;;;;;;;15.23;5.78;;;16.10;99.90;;;;;;4997643;28;20036;-84
2023/08/01 05:20:22;;;;;;;14.65;5.43;;;16.10;99.90;;;;;;4981730;28;20501;-84
2023/08/01 05:22:47;;;;;;;15.95;5.70;;;16.10;99.90;;;;;;5015573;28;20034;-84
2023/08/01 05:25:13;;;;;;;16.25;5.70;;;16.10;99.90;;;;;;4981102;28;20105;-84
2023/08/01 05:27:39;;;;;;;13.23;5.60;;;16.20;99.90;;;;;;5004307;28;20030;-83
2023/08/01 05:30:05;;;;;;;12.43;5.85;;;16.20;99.90;;;;;;5004179;28;20031;-84
2023/08/01 05:32:30;;;;;;;18.90;6.68;;;16.20;99.90;;;;;;5002765;28;20038;-84
2023/08/01 05:34:56;;;;;;;17.75;6.38;;;16.30;99.90;;;;;;5003308;28;20042;-83
2023/08/01 05:37:21;;;;;;;11.70;5.35;;;16.30;99.90;;;;;;5003786;28;20117;-85
2023/08/01 05:39:47;;;;;;;10.57;4.95;;;16.40;99.90;;;;;;5003096;28;20363;-84
2023/08/01 05:42:13;;;;;;;11.27;5.10;;;16.40;99.90;;;;;;5004396;28;20031;-84
2023/08/01 05:44:39;;;;;;;14.45;5.47;;;16.40;99.90;;;;;;4981302;28;20057;-84
2023/08/01 05:47:04;;;;;;;11.70;5.50;;;16.50;99.90;;;;;;4994132;28;20026;-84
2023/08/01 05:49:30;;;;;;;12.88;5.68;;;16.50;99.90;;;;;;4994645;28;20033;-85
2023/08/01 05:51:56;;;;;;;14.00;5.93;;;16.50;99.90;;;;;;4978258;28;20038;-85
2023/08/01 05:54:22;;;;;;;17.42;7.50;;;16.50;99.90;;;;;;4993954;28;20050;-83
2023/08/01 05:56:47;;;;;;;15.02;6.82;;;16.50;99.90;;;;;;4994308;28;20110;-84
2023/08/01 05:59:13;;;;;;;16.30;6.93;;;16.60;99.90;;;;;;4978221;28;20097;-83
2023/08/01 06:01:39;;;;;;;11.52;5.97;;;16.60;99.90;;;;;;4994292;28;20360;-85
2023/08/01 06:04:04;;;;;;;16.52;6.53;;;16.70;99.90;;;;;;4977473;28;20537;-84
2023/08/01 06:06:30;;;;;;;17.23;7.10;;;16.80;99.90;;;;;;4993833;28;20046;-84
2023/08/01 06:08:56;;;;;;;14.38;6.82;;;16.80;99.90;;;;;;4993881;28;20037;-84
2023/08/01 06:11:22;;;;;;;18.50;8.02;;;16.90;99.90;;;;;;4961447;28;20407;-83
2023/08/01 06:13:47;;;;;;;19.20;7.90;;;16.80;99.90;;;;;;4993909;28;20042;-83
2023/08/01 06:16:13;;;;;;;17.40;7.38;;;16.80;99.90;;;;;;4994818;28;20034;-83
2023/08/01 06:18:38;;;;;;;16.48;7.10;;;16.80;99.90;;;;;;4993986;28;20117;-83
2023/08/01 06:21:04;;;;;;;16.98;7.68;;;16.80;99.90;;;;;;4961242;28;20026;-83
2023/08/01 06:23:30;;;;;;;14.05;6.20;;;16.90;99.90;;;;;;4977678;28;20035;-83
2023/08/01 06:25:55;;;;;;;17.60;6.68;;;16.80;99.90;;;;;;4994090;28;20077;-83
2023/08/01 06:28:21;;;;;;;17.17;6.60;;;16.80;99.90;;;;;;4993589;28;20026;-83
2023/08/01 06:30:46;;;;;;;15.27;6.43;;;16.90;99.90;;;;;;4993275;28;20052;-82
2023/08/01 06:33:12;;;;;;;13.23;5.85;;;16.90;99.90;;;;;;4993331;28;20030;-83
2023/08/01 06:35:38;;;;;;;15.05;6.45;;;16.90;99.90;;;;;;4977156;28;20117;-84
2023/08/01 06:38:03;;;;;;;15.93;5.88;;;16.90;99.90;;;;;;4994316;28;20105;-84
2023/08/01 06:40:29;;;;;;;16.00;6.18;;;16.90;99.90;;;;;;4993415;28;20045;-83
2023/08/01 06:42:54;;;;;;;16.50;5.95;;;16.90;99.90;;;;;;4993819;28;20467;-83
2023/08/01 06:45:20;;;;;;;13.93;4.75;;;17.00;99.90;;;;;;4994555;28;20027;-82
2023/08/01 06:47:46;;;;;;;16.10;5.40;;;17.00;99.90;;;;;;4993088;28;20030;-82
2023/08/01 06:50:11;;;;;;;12.80;5.25;;;17.00;99.90;;;;;;4976699;28;20034;-82
2023/08/01 06:52:37;;;;;;;13.25;4.35;;;17.00;99.90;;;;;;4992934;28;20018;-83
2023/08/01 06:55:03;;;;;;;11.27;4.95;;;17.10;99.90;;;;;;4994176;28;20402;-83
2023/08/01 06:57:29;;;;;;;12.38;5.07;;;17.10;99.90;;;;;;4994239;28;20046;-83
2023/08/01 06:59:54;;;;;;;11.07;5.22;;;17.20;99.90;;;;;;4993176;28;20591;-83
2023/08/01 07:02:20;;;;;;;14.90;5.20;;;17.20;99.90;;;;;;4993982;28;20098;-81
2023/08/01 07:04:45;;;;;;;17.13;6.07;;;17.20;99.90;;;;;;4960717;28;20026;-84
2023/08/01 07:07:11;;;;;;;12.13;4.20;;;17.20;99.90;;;;;;4976409;28;20491;-81
2023/08/01 07:09:37;;;;;;;14.25;5.30;;;17.30;99.90;;;;;;4976869;28;20025;-81
2023/08/01 07:12:03;;;;;;;13.23;5.13;;;17.30;99.90;;;;;;4976275;28;20027;-81
2023/08/01 07:14:28;;;;;;;14.10;5.25;;;17.30;99.90;;;;;;4979977;28;20422;-81
2023/08/01 07:16:54;;;;;;;13.98;4.97;;;17.30;99.90;;;;;;4984069;28;20039;-81
2023/08/01 07:19:20;;;;;;;11.60;3.72;;;17.30;99.90;;;;;;5003461;28;20054;-79
2023/08/01 07:21:47;;;;;;;15.13;4.22;;;17.30;99.90;;;;;;5001659;28;20384;-81
2023/08/01 07:24:14;;;;;;;12.70;3.95;;;17.40;99.90;;;;;;5003266;28;20018;-80
2023/08/01 07:26:39;;;;;;;11.38;3.25;;;17.40;99.90;;;;;;5002756;28;20050;-80
2023/08/01 07:29:05;;;;;;;14.48;3.97;;;17.40;99.90;;;;;;5002236;28;20066;-80
2023/08/01 07:31:31;;;;;;;11.05;3.50;;;17.40;99.90;;;;;;5003555;28;20109;-81
2023/08/01 07:33:56;;;;;;;11.57;3.15;;;17.50;99.90;;;;;;4987295;28;20040;-80
2023/08/01 07:36:22;;;;;;;13.98;3.17;;;17.50;99.90;;;;;;4991228;28;20025;-80
2023/08/01 07:38:48;;;;;;;6.93;2.22;;;17.50;99.90;;;;;;5005435;28;20360;-81
2023/08/01 07:41:13;;;;;;;7.85;3.38;;;17.60;99.90;;;;;;4992450;28;20037;-80
2023/08/01 07:43:39;;;;;;;9.65;2.67;;;17.60;99.90;;;;;;5006597;28;20443;-81
2023/08/01 07:46:04;;;;;;;11.88;2.42;;;17.70;99.90;;;;;;4988625;28;20061;-80
2023/08/01 07:48:30;;;;;;;10.35;2.83;;;17.70;99.90;;;;;;4988097;28;20069;-81
2023/08/01 07:50:56;;;;;;;10.18;2.55;;;17.80;99.90;;;;;;5003936;28;20038;-80
2023/08/01 07:53:21;;;;;;;11.18;2.50;;;17.80;99.90;;;;;;4973963;28;20029;-80
2023/08/01 07:55:47;;;;;;;9.43;2.45;;;17.90;99.90;;;;;;5005647;28;20029;-80
2023/08/01 07:58:13;;;;;;;9.55;2.70;;;18.00;99.90;;;;;;5005340;28;20033;-80
2023/08/01 08:00:38;;;;;;;10.07;2.70;;;18.00;99.90;;;;;;4990243;28;20053;-81
2023/08/01 08:03:05;;;;;;;9.43;2.65;;;18.10;99.90;;;;;;4987308;28;20061;-80
2023/08/01 08:05:31;;;;;;;8.05;2.22;;;18.20;99.90;;;;;;4995944;28;20054;-80
2023/08/01 08:07:57;;;;;;;8.50;2.97;;;18.30;99.90;;;;;;4996058;28;20046;-81
2023/08/01 08:10:22;;;;;;;6.03;2.08;;;18.40;99.90;;;;;;4996043;28;20030;-80
2023/08/01 08:12:48;;;;;;;8.23;2.35;;;18.40;99.90;;;;;;4996154;28;20058;-81
2023/08/01 08:15:15;;;;;;;10.10;2.83;;;18.40;99.90;;;;;;4996154;28;20487;-83
2023/08/01 08:17:41;;;;;;;9.10;2.80;;;18.20;99.90;;;;;;4980301;28;20158;-85
2023/08/01 08:20:07;;;;;;;9.80;3.20;;;18.00;99.90;;;;;;4995759;28;20034;-84
2023/08/01 08:22:33;;;;;;;11.43;3.53;;;17.80;99.90;;;;;;4996767;28;20038;-84
2023/08/01 08:24:58;;;;;;;10.43;2.95;;;17.60;99.90;;;;;;4963735;28;20447;-84
2023/08/01 08:27:24;;;;;;;13.23;3.50;;;17.40;99.90;;;;;;4996936;28;20062;-86
2023/08/01 08:29:50;;;;;;;12.15;3.85;;;17.30;99.90;;;;;;4998306;28;20037;-85
2023/08/01 08:32:16;;;;;;;11.50;4.30;;;17.20;99.90;;;;;;5003384;28;20359;-85
2023/08/01 08:34:42;;;;;;;13.52;4.18;;;17.20;99.90;;;;;;5012300;28;20107;-84
2023/08/01 08:37:07;;;;;;;11.80;3.83;;;17.20;99.90;;;;;;5021159;28;20034;-84
2023/08/01 08:39:33;;;;;;;9.45;3.85;;;17.20;99.90;;;;;;5017604;28;20088;-84
2023/08/01 08:41:59;;;;;;;10.43;4.07;;;17.30;99.90;;;;;;5023192;28;20069;-84
2023/08/01 08:44:25;;;;;;;12.85;4.40;;;17.40;99.90;;;;;;5025007;28;20034;-85
2023/08/01 08:46:52;;;;;;;12.38;3.30;;;17.40;99.90;;;;;;5013441;28;20030;-84
2023/08/01 08:49:20;;;;;;;11.15;3.92;;;17.50;99.90;;;;;;5000625;28;20057;-85
2023/08/01 08:51:46;;;;;;;9.95;3.42;;;17.60;99.90;;;;;;5005401;28;20113;-84
2023/08/01 08:54:13;;;;;;;11.02;2.83;;;17.60;99.90;;;;;;5005976;28;20049;-84
2023/08/01 08:56:43;;;;;;;6.10;2.05;;;17.70;99.90;;;;;;5016017;28;20030;-84
2023/08/01 08:59:12;;;;;;;10.88;2.80;;;17.80;99.90;;;;;;5014148;28;20033;-84
2023/08/01 09:01:39;;;;;;;8.70;2.40;;;17.90;99.90;;;;;;5014166;28;20026;-84
2023/08/01 09:04:05;;;;;;;8.43;1.88;;;17.90;99.90;;;;;;5014490;28;20041;-85
2023/08/01 09:06:49;;;;;;;6.18;2.03;;;18.00;99.90;;;;;;5001576;28;20085;-84
2023/08/01 09:09:15;;;;;;;11.00;1.83;;;18.10;99.90;;;;;;5035626;28;20036;-84
2023/08/01 09:11:51;;;;;;;7.95;1.75;;;18.20;99.90;;;;;;4985426;28;20475;-85
2023/08/01 09:14:18;;;;;;;5.03;1.25;;;18.40;99.90;;;;;;4982289;28;20073;-84
2023/08/01 09:16:45;;;;;;;9.25;1.60;;;18.50;99.90;;;;;;4981888;28;20030;-84
2023/08/01 09:19:15;;;;;;;8.68;1.58;;;18.60;99.90;;;;;;4997813;28;20191;-84
2023/08/01 09:21:41;;;;;;;6.93;1.35;;;18.70;99.90;;;;;;5015795;28;20049;-85
2023/08/01 09:24:20;;;;;;;7.88;1.42;;;18.80;99.90;;;;;;5015831;28;20033;-85
2023/08/01 09:26:48;;;;;;;6.28;1.52;;;18.90;99.90;;;;;;4981588;28;20038;-85
2023/08/01 09:29:17;;;;;;;8.10;1.92;;;19.10;99.90;;;;;;4996721;28;20030;-83
2023/08/01 09:31:43;;;;;;;3.85;0.93;;;19.20;97.30;;;;;;4996270;28;20389;-82
2023/08/01 09:34:23;;;;;;;6.05;0.93;;;19.40;95.80;;;;;;4996611;28;20123;-84
2023/08/01 09:36:50;;;;;;;4.03;0.80;;;19.40;95.80;;;;;;4996870;28;20032;-83
2023/08/01 09:39:21;;;;;;;5.90;1.00;;;19.50;95.50;;;;;;4997899;28;20026;-84
2023/08/01 09:41:58;;;;;;;4.35;1.48;;;19.60;95.10;;;;;;4981703;28;20030;-84
2023/08/01 09:44:26;;;;;;;5.15;1.20;;;19.60;94.10;;;;;;5015646;28;20420;-85
2023/08/01 09:47:04;;;;;;;7.28;1.20;;;19.60;93.70;;;;;;4997595;28;20022;-85
2023/08/01 09:49:30;;;;;;;7.10;1.40;;;19.70;92.80;;;;;;4997414;28;20034;-85
2023/08/01 09:51:57;;;;;;;6.88;1.50;;;19.70;92.90;;;;;;4998226;28;20022;-84
2023/08/01 09:54:23;;;;;;;7.63;1.20;;;19.70;92.50;;;;;;4981570;28;20149;-85
2023/08/01 09:56:51;;;;;;;6.55;1.40;;;19.70;92.60;;;;;;4996893;28;20022;-85
2023/08/01 09:59:25;;;;;;;6.45;1.10;;;19.70;91.60;;;;;;4997458;28;20030;-85
2023/08/01 10:01:51;;;;;;;;;;;19.80;91.40;;;;;;4997729;28;20030;-84
2023/08/01 10:04:20;;;;;;;6.93;1.27;;;19.80;91.80;;;;;;5014710;28;19905;-85
2023/08/01 10:06:49;;;;;;;6.70;1.40;;;19.90;92.00;;;;;;5026291;28;20063;-85
2023/08/01 10:09:16;;;;;;;4.85;1.23;;;20.00;92.10;;;;;;5016606;28;20037;-85
2023/08/01 10:11:42;;;;;;;7.30;1.55;;;20.00;91.60;;;;;;5028349;28;20040;-85
2023/08/01 10:14:08;;;;;;;7.70;1.65;;;20.10;91.80;;;;;;5005066;28;20061;-84
2023/08/01 10:16:36;;;;;;;8.93;1.65;;;20.10;91.30;;;;;;4989704;28;20025;-84
2023/08/01 10:19:02;;;;;;;6.50;1.30;;;20.10;91.20;;;;;;5006921;28;20057;-85
2023/08/01 10:21:29;;;;;;;9.15;1.58;;;20.10;90.80;;;;;;5000052;28;20509;-84
2023/08/01 10:23:58;;;;;;;7.20;1.40;;;20.00;90.90;;;;;;5016781;28;20514;-84
2023/08/01 10:26:24;;;;;;;6.10;0.93;;;20.00;90.40;;;;;;5034798;28;20060;-84
2023/08/01 10:28:51;;;;;;;6.22;1.60;;;20.10;88.40;;;;;;5000790;28;20033;-85
2023/08/01 10:31:18;;;;;;;3.80;0.80;;;20.10;87.70;;;;;;5016727;28;20083;-85
2023/08/01 10:33:49;;;;;;;5.10;1.05;;;20.20;87.90;;;;;;5017031;28;20029;-84
2023/08/01 10:36:22;;;;;;;6.88;1.38;;;20.40;87.30;;;;;;4998725;28;20036;-84
2023/08/01 10:38:57;;;;;;;4.30;0.98;;;20.50;87.30;;;;;;4996254;28;20076;-84
2023/08/01 10:41:31;;;;;;;7.25;1.70;;;20.70;88.60;;;;;;5032217;28;20033;-85
2023/08/01 10:44:15;;;;;;;6.32;1.52;;;21.00;85.20;;;;;;5014399;28;20056;-84
2023/08/01 10:46:55;;;;;;;4.68;1.23;;;21.10;83.30;;;;;;5026058;28;20040;-84
2023/08/01 10:49:39;;;;;;;6.28;1.40;;;21.20;83.90;;;;;;5005554;28;20018;-85
2023/08/01 10:52:28;;;;;;;4.75;1.15;;;21.30;82.80;;;;;;4995698;28;20116;-86
2023/08/01 10:55:01;;;;;;;8.55;1.40;;;21.50;84.30;;;;;;4996408;28;20498;-86
2023/08/01 10:57:28;;;;;;;8.05;2.08;;;21.80;83.60;;;;;;4980606;28;20033;-86
2023/08/01 10:59:58;;;;;;;7.63;1.52;;;22.20;81.20;;;;;;5014231;28;20030;-86
2023/08/01 11:02:26;;;;;;;5.18;1.05;;;22.70;81.30;;;;;;4985835;28;20126;-86
2023/08/01 11:05:03;;;;;;;5.53;1.17;;;23.20;80.50;;;;;;5022444;28;20108;-86
2023/08/01 11:07:30;;;;;;;5.43;1.33;;;23.60;77.10;;;;;;5021940;28;20095;-85
2023/08/01 11:10:13;;;;;;;5.53;1.00;;;23.90;75.40;;;;;;5023078;28;20100;-85
2023/08/01 11:12:41;;;;;;;4.25;1.08;;;24.30;71.90;;;;;;5006447;28;20144;-88
2023/08/01 11:15:09;;;;;;;4.57;1.25;;;24.80;71.90;;;;;;4999476;28;20136;-85
2023/08/01 11:17:38;;;;;;;3.47;0.98;;;25.10;70.70;;;;;;5034412;28;20422;-85
2023/08/01 11:20:07;;;;;;;7.20;1.48;;;25.30;69.10;;;;;;5016057;28;20040;-86
2023/08/01 11:22:33;;;;;;;3.35;1.10;;;25.40;66.60;;;;;;5015787;28;20064;-85
2023/08/01 11:24:59;;;;;;;6.05;1.33;;;25.50;65.80;;;;;;4999278;28;20378;-87
2023/08/01 11:27:26;;;;;;;6.10;1.00;;;25.60;65.20;;;;;;5015705;28;20022;-85
2023/08/01 11:29:53;;;;;;;8.68;1.58;;;25.70;64.90;;;;;;4999855;28;20017;-86
2023/08/01 11:32:20;;;;;;;5.03;1.10;;;25.60;64.30;;;;;;5015387;28;20064;-86
2023/08/01 11:34:46;;;;;;;4.55;1.10;;;25.70;63.70;;;;;;4999348;28;20075;-85
2023/08/01 11:37:14;;;;;;;8.57;1.52;;;25.50;64.30;;;;;;5005174;28;20052;-85
2023/08/01 11:39:41;;;;;;;5.03;1.20;;;25.50;64.70;;;;;;5006353;28;20118;-85
2023/08/01 11:42:06;;;;;;;5.85;1.02;;;25.30;65.10;;;;;;5014929;28;20025;-85
2023/08/01 11:44:32;;;;;;;5.50;1.20;;;25.00;63.30;;;;;;4999326;28;20179;-85
2023/08/01 11:46:58;;;;;;;5.03;1.10;;;25.00;63.70;;;;;;5015470;28;20030;-84
2023/08/01 11:49:24;;;;;;;6.72;0.85;;;25.30;65.20;;;;;;5033188;28;20037;-86
2023/08/01 11:51:49;;;;;;;6.82;1.20;;;25.80;62.50;;;;;;5033491;28;20029;-87
2023/08/01 11:54:17;;;;;;;3.95;0.90;;;26.10;61.70;;;;;;5015538;28;20538;-85
2023/08/01 11:56:43;;;;;;;4.05;0.90;;;26.20;61.20;;;;;;5015763;28;20434;-86
2023/08/01 11:59:13;;;;;;;4.75;1.00;;;26.30;59.20;;;;;;5033034;28;20064;-85
2023/08/01 12:01:44;;;;;;;5.25;0.82;;;26.00;58.70;;;;;;5015652;28;20049;-85
2023/08/01 12:04:10;;;;;;;5.90;0.98;;;26.00;59.60;;;;;;5015668;28;20030;-85
2023/08/01 12:06:38;;;;;;;5.43;0.90;;;26.40;60.90;;;;;;5011595;28;20061;-86
2023/08/01 12:09:11;;;;;;;4.85;0.80;;;26.80;59.60;;;;;;5013440;28;20025;-87
2023/08/01 12:11:38;;;;;;;3.88;0.70;;;27.10;58.20;;;;;;5012231;28;20493;-87
2023/08/01 12:14:09;;;;;;;4.10;0.70;;;27.20;56.20;;;;;;4999787;28;20092;-88
2023/08/01 12:16:36;;;;;;;6.43;0.93;;;27.20;55.60;;;;;;5001247;28;20409;-86
2023/08/01 12:19:02;;;;;;;5.32;0.70;;;26.90;55.70;;;;;;5003056;28;20022;-85
2023/08/01 12:21:33;;;;;;;2.80;0.60;;;26.50;55.00;;;;;;5008277;28;20413;-86
2023/08/01 12:23:58;;;;;;;4.60;0.80;;;25.90;55.70;;;;;;5005675;28;20437;-86
2023/08/01 12:26:24;;;;;;;4.55;0.70;;;25.30;57.40;;;;;;4995826;28;20057;-87
2023/08/01 12:28:50;;;;;;;5.32;1.10;;;24.70;59.20;;;;;;4995646;28;20054;-89
2023/08/01 12:31:20;;;;;;;4.70;0.68;;;24.30;62.70;;;;;;4997049;28;20506;-86
2023/08/01 12:33:46;;;;;;;4.15;0.90;;;23.80;64.10;;;;;;5000494;28;20030;-89
2023/08/01 12:36:13;;;;;;;7.53;1.27;;;23.50;65.50;;;;;;5016010;28;20041;-86
2023/08/01 12:38:38;;;;;;;4.57;0.90;;;23.40;66.40;;;;;;5014507;28;20490;-86
2023/08/01 12:41:04;;;;;;;4.00;0.80;;;23.40;66.70;;;;;;5014762;28;20053;-85
2023/08/01 12:43:30;;;;;;;8.13;0.90;;;23.30;67.10;;;;;;5015584;28;20030;-84
2023/08/01 12:45:58;;;;;;;5.93;0.90;;;23.10;67.30;;;;;;5014589;28;20034;-86
2023/08/01 12:48:24;;;;;;;5.60;1.20;;;23.00;67.90;;;;;;5014513;28;20065;-86
2023/08/01 12:50:49;;;;;;;6.88;1.30;;;22.80;67.90;;;;;;4997584;28;20044;-83
2023/08/01 12:53:15;;;;;;;4.55;1.10;;;22.60;67.50;;;;;;5017054;28;20474;-81
2023/08/01 12:55:46;;;;;;;9.75;1.45;;;22.50;67.80;;;;;;5014964;28;20044;-86
2023/08/01 12:58:12;;;;;;;9.15;1.52;;;22.30;69.20;;;;;;5017137;28;20030;-86
2023/08/01 13:00:39;;;;;;;8.48;1.20;;;22.10;69.50;;;;;;5015990;28;20475;-85
2023/08/01 13:03:06;;;;;;;6.60;1.30;;;22.00;69.80;;;;;;5013478;28;20022;-84
2023/08/01 13:05:34;;;;;;;5.80;1.13;;;21.90;70.00;;;;;;5013581;28;20068;-86
2023/08/01 13:08:00;;;;;;;4.13;1.08;;;21.80;70.10;;;;;;5013670;28;20482;-85
2023/08/01 13:10:25;;;;;;;7.28;1.15;;;21.90;70.40;;;;;;5013489;28;20100;-86
2023/08/01 13:12:51;;;;;;;6.00;1.58;;;22.00;69.80;;;;;;5012776;28;20037;-86
2023/08/01 13:15:17;;;;;;;7.20;1.38;;;22.50;70.40;;;;;;4981199;28;20041;-88
2023/08/01 13:17:42;;;;;;;6.78;1.30;;;23.30;70.40;;;;;;4996959;28;20574;-86